createdAt,value
2022-12-18T00:02:08.027Z,87.47
2022-12-18T00:06:10.960Z,88.91
2022-12-18T00:10:15.507Z,88.81
2022-12-18T00:14:17.110Z,89.30
2022-12-18T00:18:20.667Z,88.80
2022-12-18T00:22:23.613Z,87.48
2022-12-18T00:26:26.048Z,87.14
2022-12-18T00:30:27.622Z,86.67
2022-12-18T00:34:28.988Z,86.97
2022-12-18T00:38:31.804Z,88.05
2022-12-18T00:42:33.190Z,88.31
2022-12-18T00:46:34.595Z,88.17
2022-12-18T00:50:36.009Z,89.23
2022-12-18T00:54:38.766Z,89.68
2022-12-18T00:58:40.149Z,88.79
2022-12-18T01:02:41.744Z,88.49
2022-12-18T01:06:43.226Z,88.69
2022-12-18T01:10:45.957Z,88.41
2022-12-18T01:14:47.642Z,88.61
2022-12-18T01:18:51.587Z,88.25
2022-12-18T01:22:52.965Z,87.09
2022-12-18T01:26:55.734Z,87.58
2022-12-18T01:30:57.074Z,87.12
2022-12-18T01:34:58.575Z,86.71
2022-12-18T01:39:00.648Z,87.86
2022-12-18T01:43:03.579Z,88.44
2022-12-18T01:47:05.017Z,88.11
2022-12-18T01:51:06.974Z,87.71
2022-12-18T01:55:10.058Z,86.80
2022-12-18T01:59:14.081Z,86.84
2022-12-18T02:03:15.498Z,86.02
2022-12-18T02:07:21.312Z,86.45
2022-12-18T02:11:29.175Z,86.93
2022-12-18T02:15:36.937Z,86.53
2022-12-18T02:19:47.776Z,87.42
2022-12-18T02:23:54.069Z,87.19
2022-12-18T02:27:57.393Z,87.41
2022-12-18T02:31:59.697Z,87.70
2022-12-18T02:36:02.094Z,87.85
2022-12-18T02:40:04.530Z,86.45
2022-12-18T02:44:10.005Z,86.91
2022-12-18T02:48:11.403Z,87.19
2022-12-18T02:52:19.459Z,87.86
2022-12-18T02:56:22.429Z,88.04
2022-12-18T03:00:28.069Z,88.13
2022-12-18T03:04:31.442Z,87.56
2022-12-18T03:08:36.484Z,87.80
2022-12-18T03:12:41.309Z,87.59
2022-12-18T03:16:44.569Z,87.30
2022-12-18T03:20:46.907Z,85.69
2022-12-18T03:24:49.632Z,85.55
2022-12-18T03:28:52.453Z,86.70
2022-12-18T03:33:00.539Z,85.32
2022-12-18T03:37:02.136Z,85.86
2022-12-18T03:41:07.732Z,86.98
2022-12-18T03:45:11.182Z,87.57
2022-12-18T03:49:16.110Z,87.63
2022-12-18T03:53:24.177Z,86.01
2022-12-18T03:57:29.331Z,85.07
2022-12-18T04:01:32.712Z,86.76
2022-12-18T04:05:36.746Z,86.05
2022-12-18T04:09:39.569Z,85.34
2022-12-18T04:13:43.383Z,86.75
2022-12-18T04:17:48.551Z,86.91
2022-12-18T04:21:51.309Z,87.50
2022-12-18T04:25:52.714Z,87.17
2022-12-18T04:29:54.061Z,87.05
2022-12-18T04:33:55.444Z,86.06
2022-12-18T04:37:58.200Z,85.23
2022-12-18T04:41:59.559Z,84.94
2022-12-18T04:46:04.158Z,86.33
2022-12-18T04:50:06.107Z,86.13
2022-12-18T04:54:08.810Z,86.50
2022-12-18T04:58:10.161Z,87.38
2022-12-18T05:02:11.758Z,86.36
2022-12-18T05:06:13.311Z,85.50
2022-12-18T05:10:16.166Z,86.59
2022-12-18T05:14:17.587Z,86.32
2022-12-18T05:18:18.960Z,86.77
2022-12-18T05:22:20.332Z,86.06
2022-12-18T05:26:23.156Z,85.63
2022-12-18T05:30:24.527Z,85.89
2022-12-18T05:34:25.893Z,85.83
2022-12-18T05:38:27.976Z,85.48
2022-12-18T05:42:31.094Z,85.61
2022-12-18T05:46:32.687Z,86.01
2022-12-18T05:50:34.804Z,85.49
2022-12-18T05:54:36.164Z,84.88
2022-12-18T05:58:38.989Z,86.00
2022-12-18T06:02:40.510Z,86.29
2022-12-18T06:06:42.012Z,85.80
2022-12-18T06:10:43.350Z,86.21
2022-12-18T06:14:46.052Z,85.64
2022-12-18T06:18:47.431Z,85.13
2022-12-18T06:22:48.842Z,85.54
2022-12-18T06:26:51.024Z,85.66
2022-12-18T06:30:53.738Z,85.74
2022-12-18T06:34:55.118Z,86.47
2022-12-18T06:38:56.986Z,86.43
2022-12-18T06:42:58.352Z,86.18
2022-12-18T06:47:01.101Z,85.31
2022-12-18T06:51:02.590Z,85.50
2022-12-18T06:55:04.360Z,85.63
2022-12-18T06:59:05.759Z,85.36
2022-12-18T07:03:08.579Z,85.64
2022-12-18T07:07:10.003Z,85.46
2022-12-18T07:11:11.500Z,85.68
2022-12-18T07:15:12.905Z,85.77
2022-12-18T07:19:15.619Z,85.74
2022-12-18T07:23:16.967Z,85.89
2022-12-18T07:27:18.381Z,85.62
2022-12-18T07:31:21.609Z,85.18
2022-12-18T07:35:25.445Z,84.75
2022-12-18T07:39:27.113Z,84.96
2022-12-18T07:43:28.501Z,84.96
2022-12-18T07:47:30.092Z,85.37
2022-12-18T07:51:33.628Z,85.80
2022-12-18T07:56:00.020Z,85.73
2022-12-18T07:59:56.312Z,85.49
2022-12-18T08:03:58.056Z,85.17
2022-12-18T08:08:00.776Z,84.37
2022-12-18T08:12:02.115Z,84.73
2022-12-18T08:16:04.713Z,84.17
2022-12-18T08:20:06.509Z,83.12
2022-12-18T08:24:10.765Z,82.53
2022-12-18T08:28:12.279Z,83.27
2022-12-18T08:32:13.717Z,83.57
2022-12-18T08:36:15.115Z,83.61
2022-12-18T08:40:17.910Z,83.15
2022-12-18T08:44:19.311Z,83.05
2022-12-18T08:48:22.365Z,84.21
2022-12-18T08:52:23.836Z,84.71
2022-12-18T08:56:26.552Z,85.17
2022-12-18T09:00:28.098Z,84.17
2022-12-18T09:04:29.458Z,83.63
2022-12-18T09:08:30.866Z,83.95
2022-12-18T09:12:33.576Z,85.65
2022-12-18T09:16:34.973Z,85.13
2022-12-18T09:20:36.355Z,83.98
2022-12-18T09:24:37.732Z,84.30
2022-12-18T09:28:40.736Z,84.07
2022-12-18T09:32:42.386Z,83.45
2022-12-18T09:36:43.831Z,83.41
2022-12-18T09:40:46.139Z,85.00
2022-12-18T09:44:51.246Z,85.19
2022-12-18T09:48:53.972Z,84.06
2022-12-18T09:52:57.681Z,83.89
2022-12-18T09:56:59.157Z,84.12
2022-12-18T10:01:01.881Z,83.43
2022-12-18T10:05:05.371Z,83.01
2022-12-18T10:09:11.480Z,83.22
2022-12-18T10:13:19.825Z,82.13
2022-12-18T10:17:27.433Z,81.48
2022-12-18T10:21:32.965Z,82.52
2022-12-18T10:25:39.620Z,82.70
2022-12-18T10:29:41.625Z,82.64
2022-12-18T10:33:44.454Z,82.29
2022-12-18T10:38:01.146Z,82.19
2022-12-18T10:42:10.588Z,80.99
2022-12-18T10:46:16.631Z,80.61
2022-12-18T10:50:26.299Z,80.71
2022-12-18T10:54:33.900Z,79.50
2022-12-18T10:58:36.838Z,80.34
2022-12-18T11:02:39.010Z,80.98
2022-12-18T11:06:53.586Z,81.08
2022-12-18T11:10:54.956Z,80.64
2022-12-18T11:14:56.554Z,81.55
2022-12-18T11:19:11.496Z,82.48
2022-12-18T11:23:14.449Z,82.96
2022-12-18T11:27:18.672Z,82.47
2022-12-18T11:31:26.953Z,82.26
2022-12-18T11:35:35.642Z,81.97
2022-12-18T11:39:40.294Z,81.41
2022-12-18T11:43:45.240Z,80.86
2022-12-18T11:47:50.036Z,80.79
2022-12-18T11:51:55.162Z,80.85
2022-12-18T11:56:05.771Z,81.78
2022-12-18T12:00:12.812Z,81.86
2022-12-18T12:04:38.399Z,81.41
2022-12-18T12:08:48.746Z,81.74
2022-12-18T12:13:01.008Z,81.40
2022-12-18T12:17:05.426Z,80.90
2022-12-18T12:21:08.996Z,80.21
2022-12-18T12:25:19.358Z,79.83
2022-12-18T12:29:29.683Z,80.18
2022-12-18T12:33:38.389Z,80.56
2022-12-18T12:37:49.483Z,79.81
2022-12-18T12:41:50.855Z,79.29
2022-12-18T12:45:55.203Z,79.03
2022-12-18T12:49:57.606Z,78.32
2022-12-18T12:54:01.226Z,78.29
2022-12-18T12:58:08.034Z,77.57
2022-12-18T13:02:16.230Z,78.21
2022-12-18T13:06:20.013Z,78.50
2022-12-18T13:10:27.327Z,78.87
2022-12-18T13:14:30.085Z,79.14
2022-12-18T13:18:33.232Z,78.88
2022-12-18T13:22:36.130Z,78.70
2022-12-18T13:26:37.548Z,78.57
2022-12-18T13:30:42.690Z,79.33
2022-12-18T13:34:46.100Z,78.85
2022-12-18T13:38:47.547Z,78.78
2022-12-18T13:42:50.053Z,78.31
2022-12-18T13:46:52.594Z,78.78
2022-12-18T13:50:58.339Z,79.41
2022-12-18T13:55:00.895Z,79.18
2022-12-18T13:59:13.202Z,79.03
2022-12-18T14:03:22.121Z,78.51
2022-12-18T14:07:26.912Z,78.71
2022-12-18T14:11:33.125Z,78.30
2022-12-18T14:15:36.496Z,79.35
2022-12-18T14:19:41.499Z,79.13
2022-12-18T14:23:45.032Z,78.38
2022-12-18T14:27:47.726Z,78.49
2022-12-18T14:32:03.964Z,78.66
2022-12-18T14:36:06.313Z,79.36
2022-12-18T14:40:14.261Z,79.86
2022-12-18T14:44:15.634Z,78.96
2022-12-18T14:48:23.260Z,79.04
2022-12-18T14:52:28.431Z,79.66
2022-12-18T14:56:32.021Z,80.02
2022-12-18T15:00:33.433Z,80.24
2022-12-18T15:04:35.787Z,80.34
2022-12-18T15:08:37.991Z,81.08
2022-12-18T15:12:41.832Z,80.44
2022-12-18T15:16:46.135Z,80.12
2022-12-18T15:20:49.170Z,81.14
2022-12-18T15:24:50.675Z,80.69
2022-12-18T15:28:55.716Z,81.00
2022-12-18T15:33:11.970Z,81.52
2022-12-18T15:37:13.351Z,82.17
2022-12-18T15:41:17.836Z,82.23
2022-12-18T15:45:24.144Z,82.31
2022-12-18T15:49:25.594Z,82.32
2022-12-18T15:53:30.032Z,82.03
2022-12-18T15:57:31.447Z,82.20
2022-12-18T16:01:37.090Z,81.98
2022-12-18T16:05:42.312Z,81.00
2022-12-18T16:09:43.714Z,81.59
2022-12-18T16:13:45.064Z,81.96
2022-12-18T16:17:48.873Z,82.44
2022-12-18T16:21:51.102Z,82.46
2022-12-18T16:25:52.532Z,81.90
2022-12-18T16:29:53.948Z,82.22
2022-12-18T16:34:10.212Z,82.26
2022-12-18T16:38:12.922Z,82.52
2022-12-18T16:42:15.602Z,82.43
2022-12-18T16:46:17.056Z,82.83
2022-12-18T16:50:18.580Z,83.26
2022-12-18T16:54:21.500Z,82.42
2022-12-18T16:58:23.143Z,82.07
2022-12-18T17:02:25.960Z,81.36
2022-12-18T17:06:29.490Z,81.40
2022-12-18T17:10:32.266Z,82.63
2022-12-18T17:14:33.648Z,82.36
2022-12-18T17:18:35.170Z,81.83
2022-12-18T17:22:36.554Z,81.70
2022-12-18T17:26:39.408Z,81.47
2022-12-18T17:30:40.812Z,81.00
2022-12-18T17:34:42.187Z,81.53
2022-12-18T17:38:43.657Z,81.78
2022-12-18T17:42:46.398Z,82.05
2022-12-18T17:46:47.895Z,82.23
2022-12-18T17:50:49.340Z,81.72
2022-12-18T17:54:50.692Z,82.20
2022-12-18T17:58:53.437Z,81.51
2022-12-18T18:02:55.067Z,82.21
2022-12-18T18:06:56.624Z,82.10
2022-12-18T18:10:58.454Z,81.73
2022-12-18T18:15:01.198Z,81.58
2022-12-18T18:19:04.021Z,81.90
2022-12-18T18:23:05.432Z,81.18
2022-12-18T18:27:06.910Z,81.76
2022-12-18T18:31:10.586Z,81.56
2022-12-18T18:35:24.621Z,81.43
2022-12-18T18:39:33.605Z,81.45
2022-12-18T18:43:34.970Z,81.93
2022-12-18T18:47:37.760Z,81.33
2022-12-18T18:51:39.147Z,81.79
2022-12-18T18:55:40.528Z,81.73
2022-12-18T18:59:42.176Z,81.25
2022-12-18T19:03:45.438Z,82.03
2022-12-18T19:07:46.827Z,82.70
2022-12-18T19:11:48.243Z,83.40
2022-12-18T19:15:49.651Z,83.15
2022-12-18T19:19:52.554Z,82.82
2022-12-18T19:23:53.949Z,83.23
2022-12-18T19:27:55.332Z,83.99
2022-12-18T19:31:56.772Z,84.22
2022-12-18T19:35:59.676Z,84.32
2022-12-18T19:40:02.272Z,83.90
2022-12-18T19:44:08.826Z,83.60
2022-12-18T19:48:10.219Z,83.42
2022-12-18T19:52:13.030Z,83.90
2022-12-18T19:56:15.801Z,83.55
2022-12-18T20:00:18.967Z,82.99
2022-12-18T20:04:20.568Z,81.30
2022-12-18T20:08:23.356Z,81.88
2022-12-18T20:12:24.759Z,82.86
2022-12-18T20:16:26.202Z,82.17
2022-12-18T20:20:28.198Z,82.06
2022-12-18T20:24:31.132Z,82.54
2022-12-18T20:28:32.563Z,82.71
2022-12-18T20:32:37.078Z,83.24
2022-12-18T20:36:38.837Z,82.91
2022-12-18T20:40:43.717Z,82.50
2022-12-18T20:44:45.323Z,82.82
2022-12-18T20:48:46.755Z,83.61
2022-12-18T20:52:48.161Z,84.21
2022-12-18T20:56:50.911Z,83.53
2022-12-18T21:01:01.855Z,83.19
2022-12-18T21:05:03.425Z,83.72
2022-12-18T21:09:04.817Z,83.78
2022-12-18T21:13:08.790Z,84.25
2022-12-18T21:17:12.775Z,84.49
2022-12-18T21:21:14.197Z,84.50
2022-12-18T21:25:15.642Z,84.58
2022-12-18T21:29:19.777Z,85.29
2022-12-18T21:33:21.313Z,85.63
2022-12-18T21:37:22.705Z,85.70
2022-12-18T21:41:24.326Z,86.73
2022-12-18T21:45:27.053Z,85.08
2022-12-18T21:49:28.439Z,85.35
2022-12-18T21:53:29.821Z,85.15
2022-12-18T21:57:31.257Z,88.32
2022-12-18T22:01:37.732Z,88.49
2022-12-18T22:05:39.317Z,88.66
2022-12-18T22:09:41.165Z,88.44
2022-12-18T22:13:42.501Z,87.78
2022-12-18T22:17:45.232Z,86.14
2022-12-18T22:21:47.497Z,85.63
2022-12-18T22:25:48.855Z,85.96
2022-12-18T22:29:50.226Z,87.22
2022-12-18T22:33:52.972Z,85.04
2022-12-18T22:37:54.369Z,86.85
2022-12-18T22:41:56.141Z,86.92
2022-12-18T22:45:57.718Z,85.57
2022-12-18T22:50:00.577Z,85.97
2022-12-18T22:54:01.951Z,87.11
2022-12-18T22:58:03.528Z,87.58
2022-12-18T23:02:04.967Z,87.52
2022-12-18T23:06:09.120Z,87.27
2022-12-18T23:10:10.513Z,87.80
2022-12-18T23:14:12.068Z,87.91
2022-12-18T23:18:13.483Z,88.01
2022-12-18T23:22:16.227Z,87.64
2022-12-18T23:26:18.828Z,87.90
2022-12-18T23:30:20.216Z,87.07
2022-12-18T23:34:23.411Z,86.68
2022-12-18T23:38:26.123Z,86.73
2022-12-18T23:42:27.476Z,86.87
2022-12-18T23:46:30.598Z,86.27
2022-12-18T23:50:34.561Z,85.88
2022-12-18T23:54:37.275Z,85.34
2022-12-18T23:58:39.129Z,85.20
